Grain Valley, MO (64029)

08:45 AM CDT die 23o April, anno 2018 (GMT -0500)
Rosewood Hills | | Change Station

Elev 856 ft 39.04 °N, 94.21 °W | Updated 0 second ago

Plerumque Nubila
Plerumque Nubila
56.3 °F
Feels Like 56.3 °F
N
0.0
Ventus Variabilis Ventus from Eurus

Hodie
High -- | Low -- °F
--% Chance of Precip.
Yesterday
High -- | Low -- °F
Precip. -- in
Pressio 30.10 in
Visibilitas 10.0 milia passuum
Clouds Few 7000 ft
Plerumque Nubila 9000 ft
Frigus in quo Ros apparet 38 °F
Umor 51%
Rainfall 0.00 in
Snow Depth Not available.
6:28 AM 8:01 PM
First Quarter, 58% visible
METAR KLXT 231253Z AUTO 02010KT 10SM FEW070 BKN090 13/01 A3011 RMK AO2 SLP193 T01330006
Pressio 30.10 in
Visibilitas 10.0 milia passuum
Clouds Few 7000 ft
Plerumque Nubila 9000 ft
Frigus in quo Ros apparet 38 °F
Umor 51%
Rainfall 0.00 in
Snow Depth Not available.
6:28 AM 8:01 PM
First Quarter, 58% visible
METAR KLXT 231253Z AUTO 02010KT 10SM FEW070 BKN090 13/01 A3011 RMK AO2 SLP193 T01330006

Get Severe Weather Alerts

Thanks for signing up!

Be on the lookout for a verification email in your inbox.

You'll start receiving the daily forecast at 6 AM.

×

10-Day Weather Forecast

Almanac

Astronomy

Apr. 23, 2018 Rise Set
Actual Time
Civil Twilight
Nautical Twilight
Astronomical Twilight
Moon
Length Of Visible Light
Length of Day
Tomorrow will be .
, % of the Moon is Illuminated

Today's Extremes

State Highs State Lows

Community

WunderPhotos

Category 6

Welcome to Category 6. This is the collective home for Weather Underground's featured writeups by Dr. Jeff Masters (right), Bob Henson (left), Chris Burt, and other regular contributors.

Nearby

Air Quality

  Air Quality AQ Index Pollutant
Not available.

Snow Depth

Station Depth Elevation

Earthquake Activity

City Distance Mag. Time & Date
Minimum magnitude displayed is 2.5.

Coastal Water Temperatures

Locus Calor

Stations

Nearby Weather Stations

Station Location Temp Frigus Venti Frigus in quo Ros apparet Umor Ventus Precip. Elev Renovata Type
                   

Watches & Warnings

There are currently no watches in effect.